sensor_id;sensor_type;location;lat;lon;timestamp;P1;durP1;ratioP1;P2;durP2;ratioP2
42092;SDS011;28974;50.316;18.960;2022-10-16T00:23:19;37.75;;;19.75;;
42092;SDS011;28974;50.316;18.960;2022-10-16T00:35:20;58.53;;;21.20;;
42092;SDS011;28974;50.316;18.960;2022-10-16T00:47:39;51.85;;;22.55;;
42092;SDS011;28974;50.316;18.960;2022-10-16T00:59:41;46.03;;;22.13;;
42092;SDS011;28974;50.316;18.960;2022-10-16T01:36:03;63.50;;;26.67;;
42092;SDS011;28974;50.316;18.960;2022-10-16T01:48:05;43.47;;;23.10;;
42092;SDS011;28974;50.316;18.960;2022-10-16T02:00:09;39.92;;;22.88;;
42092;SDS011;28974;50.316;18.960;2022-10-16T02:12:14;47.08;;;24.77;;
42092;SDS011;28974;50.316;18.960;2022-10-16T02:36:34;41.05;;;23.05;;
42092;SDS011;28974;50.316;18.960;2022-10-16T02:48:35;45.03;;;22.65;;
42092;SDS011;28974;50.316;18.960;2022-10-16T03:00:35;47.03;;;24.58;;
42092;SDS011;28974;50.316;18.960;2022-10-16T03:12:36;44.90;;;22.80;;
42092;SDS011;28974;50.316;18.960;2022-10-16T03:24:36;52.03;;;21.42;;
42092;SDS011;28974;50.316;18.960;2022-10-16T03:36:36;45.63;;;21.15;;
42092;SDS011;28974;50.316;18.960;2022-10-16T03:48:37;36.83;;;19.10;;
42092;SDS011;28974;50.316;18.960;2022-10-16T04:00:44;37.65;;;20.70;;
42092;SDS011;28974;50.316;18.960;2022-10-16T04:12:45;43.10;;;20.58;;
42092;SDS011;28974;50.316;18.960;2022-10-16T04:24:45;44.38;;;19.38;;
42092;SDS011;28974;50.316;18.960;2022-10-16T04:36:48;38.28;;;20.42;;
42092;SDS011;28974;50.316;18.960;2022-10-16T04:48:49;37.47;;;19.73;;
42092;SDS011;28974;50.316;18.960;2022-10-16T05:00:49;51.80;;;24.48;;
42092;SDS011;28974;50.316;18.960;2022-10-16T05:12:50;46.97;;;24.65;;
42092;SDS011;28974;50.316;18.960;2022-10-16T05:24:51;56.45;;;27.05;;
42092;SDS011;28974;50.316;18.960;2022-10-16T05:36:53;57.38;;;25.80;;
42092;SDS011;28974;50.316;18.960;2022-10-16T05:48:53;80.10;;;33.15;;
42092;SDS011;28974;50.316;18.960;2022-10-16T06:00:57;61.70;;;30.65;;
42092;SDS011;28974;50.316;18.960;2022-10-16T06:12:57;52.60;;;26.77;;
42092;SDS011;28974;50.316;18.960;2022-10-16T06:24:58;64.18;;;32.35;;
42092;SDS011;28974;50.316;18.960;2022-10-16T06:36:58;65.45;;;27.55;;
42092;SDS011;28974;50.316;18.960;2022-10-16T06:48:58;47.92;;;23.13;;
42092;SDS011;28974;50.316;18.960;2022-10-16T07:00:59;47.67;;;21.15;;
42092;SDS011;28974;50.316;18.960;2022-10-16T07:12:59;44.30;;;17.65;;
42092;SDS011;28974;50.316;18.960;2022-10-16T07:24:59;35.00;;;17.45;;
42092;SDS011;28974;50.316;18.960;2022-10-16T07:37:00;34.72;;;16.65;;
42092;SDS011;28974;50.316;18.960;2022-10-16T07:49:00;27.15;;;16.00;;
42092;SDS011;28974;50.316;18.960;2022-10-16T08:01:02;28.42;;;15.23;;
42092;SDS011;28974;50.316;18.960;2022-10-16T08:13:03;17.40;;;11.23;;
42092;SDS011;28974;50.316;18.960;2022-10-16T08:25:03;15.18;;;10.52;;
42092;SDS011;28974;50.316;18.960;2022-10-16T08:37:04;21.08;;;11.25;;
42092;SDS011;28974;50.316;18.960;2022-10-16T08:49:05;23.52;;;11.48;;
42092;SDS011;28974;50.316;18.960;2022-10-16T09:01:13;20.70;;;11.07;;
42092;SDS011;28974;50.316;18.960;2022-10-16T09:25:15;25.70;;;13.30;;
42092;SDS011;28974;50.316;18.960;2022-10-16T09:37:17;25.70;;;13.20;;
42092;SDS011;28974;50.316;18.960;2022-10-16T10:13:48;22.42;;;13.13;;
42092;SDS011;28974;50.316;18.960;2022-10-16T10:50:32;23.77;;;12.20;;
42092;SDS011;28974;50.316;18.960;2022-10-16T11:02:40;26.55;;;11.40;;
42092;SDS011;28974;50.316;18.960;2022-10-16T11:14:43;28.20;;;13.27;;
42092;SDS011;28974;50.316;18.960;2022-10-16T11:26:46;23.88;;;13.85;;
42092;SDS011;28974;50.316;18.960;2022-10-16T11:50:54;20.70;;;12.15;;
42092;SDS011;28974;50.316;18.960;2022-10-16T12:02:58;20.10;;;11.57;;
42092;SDS011;28974;50.316;18.960;2022-10-16T12:15:02;29.30;;;14.55;;
42092;SDS011;28974;50.316;18.960;2022-10-16T12:27:03;27.73;;;14.40;;
42092;SDS011;28974;50.316;18.960;2022-10-16T12:39:04;27.55;;;12.77;;
42092;SDS011;28974;50.316;18.960;2022-10-16T12:51:11;32.15;;;14.05;;
42092;SDS011;28974;50.316;18.960;2022-10-16T13:27:55;32.10;;;15.35;;
42092;SDS011;28974;50.316;18.960;2022-10-16T13:40:30;34.95;;;15.40;;
42092;SDS011;28974;50.316;18.960;2022-10-16T13:52:24;26.48;;;12.40;;
42092;SDS011;28974;50.316;18.960;2022-10-16T14:04:25;21.10;;;10.85;;
42092;SDS011;28974;50.316;18.960;2022-10-16T14:16:29;28.60;;;14.25;;
42092;SDS011;28974;50.316;18.960;2022-10-16T14:28:30;27.30;;;14.45;;
42092;SDS011;28974;50.316;18.960;2022-10-16T14:40:31;26.27;;;14.38;;
42092;SDS011;28974;50.316;18.960;2022-10-16T14:52:32;27.17;;;15.48;;
42092;SDS011;28974;50.316;18.960;2022-10-16T15:04:32;33.85;;;14.98;;
42092;SDS011;28974;50.316;18.960;2022-10-16T15:16:33;27.00;;;15.02;;
42092;SDS011;28974;50.316;18.960;2022-10-16T15:28:33;38.22;;;16.95;;
42092;SDS011;28974;50.316;18.960;2022-10-16T15:40:33;45.25;;;18.67;;
42092;SDS011;28974;50.316;18.960;2022-10-16T15:52:34;45.28;;;20.42;;
42092;SDS011;28974;50.316;18.960;2022-10-16T16:04:34;64.47;;;26.20;;
42092;SDS011;28974;50.316;18.960;2022-10-16T16:16:34;49.92;;;22.70;;
42092;SDS011;28974;50.316;18.960;2022-10-16T16:28:38;45.35;;;21.40;;
42092;SDS011;28974;50.316;18.960;2022-10-16T16:40:38;53.73;;;24.27;;
42092;SDS011;28974;50.316;18.960;2022-10-16T16:52:38;68.43;;;30.58;;
42092;SDS011;28974;50.316;18.960;2022-10-16T17:04:39;66.68;;;28.85;;
42092;SDS011;28974;50.316;18.960;2022-10-16T17:16:40;54.53;;;27.53;;
42092;SDS011;28974;50.316;18.960;2022-10-16T17:28:43;80.93;;;35.70;;
42092;SDS011;28974;50.316;18.960;2022-10-16T17:40:44;77.10;;;34.33;;
42092;SDS011;28974;50.316;18.960;2022-10-16T17:52:44;65.10;;;28.05;;
42092;SDS011;28974;50.316;18.960;2022-10-16T18:04:45;44.65;;;24.05;;
42092;SDS011;28974;50.316;18.960;2022-10-16T18:16:45;59.67;;;26.88;;
42092;SDS011;28974;50.316;18.960;2022-10-16T18:28:46;61.33;;;30.95;;
42092;SDS011;28974;50.316;18.960;2022-10-16T18:40:46;65.18;;;31.15;;
42092;SDS011;28974;50.316;18.960;2022-10-16T18:52:47;84.35;;;37.17;;
42092;SDS011;28974;50.316;18.960;2022-10-16T19:04:47;88.18;;;38.08;;
42092;SDS011;28974;50.316;18.960;2022-10-16T19:16:48;85.05;;;36.80;;
42092;SDS011;28974;50.316;18.960;2022-10-16T19:28:48;71.25;;;33.33;;
42092;SDS011;28974;50.316;18.960;2022-10-16T19:40:49;75.05;;;35.53;;
42092;SDS011;28974;50.316;18.960;2022-10-16T19:52:50;79.60;;;33.90;;
42092;SDS011;28974;50.316;18.960;2022-10-16T20:04:50;78.93;;;35.03;;
42092;SDS011;28974;50.316;18.960;2022-10-16T20:16:51;62.67;;;34.10;;
42092;SDS011;28974;50.316;18.960;2022-10-16T20:28:52;65.38;;;32.20;;
42092;SDS011;28974;50.316;18.960;2022-10-16T20:40:53;64.78;;;32.10;;
42092;SDS011;28974;50.316;18.960;2022-10-16T20:52:53;78.88;;;34.65;;
42092;SDS011;28974;50.316;18.960;2022-10-16T21:04:53;84.80;;;35.85;;
42092;SDS011;28974;50.316;18.960;2022-10-16T21:16:54;62.25;;;31.67;;
42092;SDS011;28974;50.316;18.960;2022-10-16T21:28:55;77.97;;;34.65;;
42092;SDS011;28974;50.316;18.960;2022-10-16T21:40:56;77.35;;;33.85;;
42092;SDS011;28974;50.316;18.960;2022-10-16T21:52:56;69.47;;;35.20;;
42092;SDS011;28974;50.316;18.960;2022-10-16T22:04:56;82.57;;;34.75;;
42092;SDS011;28974;50.316;18.960;2022-10-16T22:16:56;64.95;;;31.17;;
42092;SDS011;28974;50.316;18.960;2022-10-16T22:28:57;85.05;;;37.03;;
42092;SDS011;28974;50.316;18.960;2022-10-16T22:41:07;101.15;;;41.20;;
42092;SDS011;28974;50.316;18.960;2022-10-16T22:53:08;98.28;;;36.80;;
42092;SDS011;28974;50.316;18.960;2022-10-16T23:05:09;83.03;;;33.83;;
42092;SDS011;28974;50.316;18.960;2022-10-16T23:17:14;71.43;;;31.90;;
42092;SDS011;28974;50.316;18.960;2022-10-16T23:29:14;77.97;;;33.47;;
42092;SDS011;28974;50.316;18.960;2022-10-16T23:41:15;67.00;;;32.95;;
42092;SDS011;28974;50.316;18.960;2022-10-16T23:53:16;104.57;;;40.38;;
